EmailTwitter


Observations de surface / Québec / LFLS

Régions: Québec | Canada | États-Unis | Europe | France | UK | Elsewhere
Station
Affichage
Infos & localisation pour LFLS | Aide pour décoder les METARs

Observations prises le 2017-05-26 à 01H30 UTC à GRENOBLE/ST. GEO, FR (LFLS)

Température: 12.0 Celsius

Point de rosée: 9.0 Celsius

Humidité relative: 82%

Vents: Sud-est à 6 km/h ou 3 noeuds.

Pression au niveau moyen de la mer: 101.70 kilopascals.

Observation METAR:

LFLS 260130Z AUTO 12003KT CAVOK 12/09 Q1017=